sensor_id;sensor_type;location;lat;lon;timestamp;P1;durP1;ratioP1;P2;durP2;ratioP2
6203;SDS011;3135;42.602;23.468;2024-03-08T00:00:38;20.17;;;7.63;;
6203;SDS011;3135;42.602;23.468;2024-03-08T00:03:05;14.82;;;5.90;;
6203;SDS011;3135;42.602;23.468;2024-03-08T00:05:30;12.25;;;5.18;;
6203;SDS011;3135;42.602;23.468;2024-03-08T00:07:56;14.25;;;5.05;;
6203;SDS011;3135;42.602;23.468;2024-03-08T00:10:22;12.73;;;5.03;;
6203;SDS011;3135;42.602;23.468;2024-03-08T00:12:47;12.37;;;5.63;;
6203;SDS011;3135;42.602;23.468;2024-03-08T00:15:14;14.13;;;5.53;;
6203;SDS011;3135;42.602;23.468;2024-03-08T00:17:40;13.32;;;5.15;;
6203;SDS011;3135;42.602;23.468;2024-03-08T00:20:06;14.48;;;4.90;;
6203;SDS011;3135;42.602;23.468;2024-03-08T00:22:35;11.68;;;4.90;;
6203;SDS011;3135;42.602;23.468;2024-03-08T00:25:02;9.60;;;4.28;;
6203;SDS011;3135;42.602;23.468;2024-03-08T00:27:28;10.25;;;4.90;;
6203;SDS011;3135;42.602;23.468;2024-03-08T00:29:55;12.30;;;4.22;;
6203;SDS011;3135;42.602;23.468;2024-03-08T00:32:21;10.23;;;4.47;;
6203;SDS011;3135;42.602;23.468;2024-03-08T00:34:49;12.60;;;4.60;;
6203;SDS011;3135;42.602;23.468;2024-03-08T00:37:17;11.45;;;4.82;;
6203;SDS011;3135;42.602;23.468;2024-03-08T00:39:42;10.83;;;5.20;;
6203;SDS011;3135;42.602;23.468;2024-03-08T00:42:08;14.57;;;5.77;;
6203;SDS011;3135;42.602;23.468;2024-03-08T00:44:33;15.20;;;5.53;;
6203;SDS011;3135;42.602;23.468;2024-03-08T00:46:59;13.77;;;5.67;;
6203;SDS011;3135;42.602;23.468;2024-03-08T00:49:24;15.77;;;5.83;;
6203;SDS011;3135;42.602;23.468;2024-03-08T00:51:50;12.97;;;5.63;;
6203;SDS011;3135;42.602;23.468;2024-03-08T00:54:15;13.93;;;5.13;;
6203;SDS011;3135;42.602;23.468;2024-03-08T00:56:41;14.88;;;6.88;;
6203;SDS011;3135;42.602;23.468;2024-03-08T00:59:07;15.40;;;5.67;;
6203;SDS011;3135;42.602;23.468;2024-03-08T01:01:32;13.30;;;5.40;;
6203;SDS011;3135;42.602;23.468;2024-03-08T01:03:58;13.93;;;5.53;;
6203;SDS011;3135;42.602;23.468;2024-03-08T01:06:24;15.15;;;6.60;;
6203;SDS011;3135;42.602;23.468;2024-03-08T01:08:49;18.63;;;6.90;;
6203;SDS011;3135;42.602;23.468;2024-03-08T01:11:16;16.57;;;6.57;;
6203;SDS011;3135;42.602;23.468;2024-03-08T01:13:43;16.60;;;7.00;;
6203;SDS011;3135;42.602;23.468;2024-03-08T01:16:08;16.02;;;6.55;;
6203;SDS011;3135;42.602;23.468;2024-03-08T01:18:34;16.35;;;6.65;;
6203;SDS011;3135;42.602;23.468;2024-03-08T01:21:00;17.47;;;6.50;;
6203;SDS011;3135;42.602;23.468;2024-03-08T01:23:27;20.02;;;7.03;;
6203;SDS011;3135;42.602;23.468;2024-03-08T01:25:54;18.35;;;6.88;;
6203;SDS011;3135;42.602;23.468;2024-03-08T01:28:25;19.40;;;7.57;;
6203;SDS011;3135;42.602;23.468;2024-03-08T01:30:51;20.83;;;7.60;;
6203;SDS011;3135;42.602;23.468;2024-03-08T01:33:24;17.17;;;7.07;;
6203;SDS011;3135;42.602;23.468;2024-03-08T01:35:51;17.35;;;6.57;;
6203;SDS011;3135;42.602;23.468;2024-03-08T01:38:17;16.45;;;7.03;;
6203;SDS011;3135;42.602;23.468;2024-03-08T01:40:43;15.18;;;6.00;;
6203;SDS011;3135;42.602;23.468;2024-03-08T01:45:54;11.07;;;4.93;;
6203;SDS011;3135;42.602;23.468;2024-03-08T01:48:22;10.20;;;4.53;;
6203;SDS011;3135;42.602;23.468;2024-03-08T01:50:49;11.47;;;4.77;;
6203;SDS011;3135;42.602;23.468;2024-03-08T01:53:15;10.98;;;4.70;;
6203;SDS011;3135;42.602;23.468;2024-03-08T01:55:44;9.75;;;4.50;;
6203;SDS011;3135;42.602;23.468;2024-03-08T01:58:11;11.13;;;5.20;;
6203;SDS011;3135;42.602;23.468;2024-03-08T02:00:40;14.38;;;5.70;;
6203;SDS011;3135;42.602;23.468;2024-03-08T02:03:08;10.43;;;4.90;;
6203;SDS011;3135;42.602;23.468;2024-03-08T02:05:34;18.37;;;5.00;;
6203;SDS011;3135;42.602;23.468;2024-03-08T02:08:00;8.55;;;3.65;;
6203;SDS011;3135;42.602;23.468;2024-03-08T02:10:27;11.85;;;4.07;;
6203;SDS011;3135;42.602;23.468;2024-03-08T02:12:53;5.55;;;3.42;;
6203;SDS011;3135;42.602;23.468;2024-03-08T02:15:19;9.37;;;3.20;;
6203;SDS011;3135;42.602;23.468;2024-03-08T02:17:44;7.25;;;2.90;;
6203;SDS011;3135;42.602;23.468;2024-03-08T02:20:10;8.80;;;2.55;;
6203;SDS011;3135;42.602;23.468;2024-03-08T02:22:38;4.43;;;2.13;;
6203;SDS011;3135;42.602;23.468;2024-03-08T02:25:03;3.43;;;2.10;;
6203;SDS011;3135;42.602;23.468;2024-03-08T02:27:30;3.35;;;2.03;;
6203;SDS011;3135;42.602;23.468;2024-03-08T02:29:56;3.73;;;2.33;;
6203;SDS011;3135;42.602;23.468;2024-03-08T02:32:22;4.47;;;2.35;;
6203;SDS011;3135;42.602;23.468;2024-03-08T02:34:48;5.83;;;2.60;;
6203;SDS011;3135;42.602;23.468;2024-03-08T02:37:14;3.03;;;2.03;;
6203;SDS011;3135;42.602;23.468;2024-03-08T02:39:40;4.40;;;2.30;;
6203;SDS011;3135;42.602;23.468;2024-03-08T02:42:06;5.55;;;2.47;;
6203;SDS011;3135;42.602;23.468;2024-03-08T02:44:32;4.53;;;2.30;;
6203;SDS011;3135;42.602;23.468;2024-03-08T02:46:58;4.05;;;2.30;;
6203;SDS011;3135;42.602;23.468;2024-03-08T02:49:25;6.25;;;2.72;;
6203;SDS011;3135;42.602;23.468;2024-03-08T02:51:51;2.80;;;2.20;;
6203;SDS011;3135;42.602;23.468;2024-03-08T02:54:22;4.65;;;2.53;;
6203;SDS011;3135;42.602;23.468;2024-03-08T02:56:49;4.35;;;2.33;;
6203;SDS011;3135;42.602;23.468;2024-03-08T02:59:17;4.53;;;2.75;;
6203;SDS011;3135;42.602;23.468;2024-03-08T03:01:43;4.28;;;2.60;;
6203;SDS011;3135;42.602;23.468;2024-03-08T03:04:09;4.85;;;2.95;;
6203;SDS011;3135;42.602;23.468;2024-03-08T03:06:35;4.30;;;2.47;;
6203;SDS011;3135;42.602;23.468;2024-03-08T03:09:00;2.93;;;2.10;;
6203;SDS011;3135;42.602;23.468;2024-03-08T03:11:27;2.20;;;1.52;;
6203;SDS011;3135;42.602;23.468;2024-03-08T03:13:52;2.90;;;1.40;;
6203;SDS011;3135;42.602;23.468;2024-03-08T03:16:20;1.33;;;0.90;;
6203;SDS011;3135;42.602;23.468;2024-03-08T03:18:46;1.40;;;1.13;;
6203;SDS011;3135;42.602;23.468;2024-03-08T03:21:12;1.17;;;1.00;;
6203;SDS011;3135;42.602;23.468;2024-03-08T03:23:41;1.30;;;1.00;;
6203;SDS011;3135;42.602;23.468;2024-03-08T03:26:09;1.17;;;1.00;;
6203;SDS011;3135;42.602;23.468;2024-03-08T03:28:38;1.45;;;1.05;;
6203;SDS011;3135;42.602;23.468;2024-03-08T03:31:07;1.20;;;0.80;;
6203;SDS011;3135;42.602;23.468;2024-03-08T03:33:35;1.00;;;0.90;;
6203;SDS011;3135;42.602;23.468;2024-03-08T03:36:01;2.10;;;1.00;;
6203;SDS011;3135;42.602;23.468;2024-03-08T03:38:26;0.83;;;0.80;;
6203;SDS011;3135;42.602;23.468;2024-03-08T03:40:53;1.10;;;0.90;;
6203;SDS011;3135;42.602;23.468;2024-03-08T03:43:22;1.10;;;1.00;;
6203;SDS011;3135;42.602;23.468;2024-03-08T03:45:48;0.93;;;0.90;;
6203;SDS011;3135;42.602;23.468;2024-03-08T03:48:13;0.80;;;0.80;;
6203;SDS011;3135;42.602;23.468;2024-03-08T03:50:39;0.83;;;0.60;;
6203;SDS011;3135;42.602;23.468;2024-03-08T03:53:04;0.60;;;0.50;;
6203;SDS011;3135;42.602;23.468;2024-03-08T03:55:33;0.70;;;0.70;;
6203;SDS011;3135;42.602;23.468;2024-03-08T03:57:58;1.10;;;0.70;;
6203;SDS011;3135;42.602;23.468;2024-03-08T04:00:26;1.52;;;0.70;;
6203;SDS011;3135;42.602;23.468;2024-03-08T04:02:51;0.53;;;0.50;;
6203;SDS011;3135;42.602;23.468;2024-03-08T04:05:17;0.70;;;0.60;;
6203;SDS011;3135;42.602;23.468;2024-03-08T04:07:42;0.60;;;0.60;;
6203;SDS011;3135;42.602;23.468;2024-03-08T04:10:11;0.73;;;0.70;;
6203;SDS011;3135;42.602;23.468;2024-03-08T04:12:37;0.73;;;0.70;;
6203;SDS011;3135;42.602;23.468;2024-03-08T04:15:02;1.00;;;0.90;;
6203;SDS011;3135;42.602;23.468;2024-03-08T04:17:30;2.50;;;1.30;;
6203;SDS011;3135;42.602;23.468;2024-03-08T04:19:55;3.15;;;1.88;;
6203;SDS011;3135;42.602;23.468;2024-03-08T04:22:20;2.80;;;1.87;;
6203;SDS011;3135;42.602;23.468;2024-03-08T04:24:46;3.07;;;2.40;;
6203;SDS011;3135;42.602;23.468;2024-03-08T04:27:12;2.90;;;1.80;;
6203;SDS011;3135;42.602;23.468;2024-03-08T04:29:39;2.47;;;1.67;;
6203;SDS011;3135;42.602;23.468;2024-03-08T04:32:05;4.30;;;1.83;;
6203;SDS011;3135;42.602;23.468;2024-03-08T04:34:32;19.00;;;6.45;;
6203;SDS011;3135;42.602;23.468;2024-03-08T04:36:57;6.32;;;2.97;;
6203;SDS011;3135;42.602;23.468;2024-03-08T04:39:23;4.37;;;2.50;;
6203;SDS011;3135;42.602;23.468;2024-03-08T04:41:49;5.30;;;2.90;;
6203;SDS011;3135;42.602;23.468;2024-03-08T04:44:15;2.75;;;1.88;;
6203;SDS011;3135;42.602;23.468;2024-03-08T04:46:42;2.80;;;1.85;;
6203;SDS011;3135;42.602;23.468;2024-03-08T04:49:08;2.83;;;1.60;;
6203;SDS011;3135;42.602;23.468;2024-03-08T04:51:33;2.83;;;1.77;;
6203;SDS011;3135;42.602;23.468;2024-03-08T04:53:59;1.77;;;1.30;;
6203;SDS011;3135;42.602;23.468;2024-03-08T04:56:24;2.50;;;1.40;;
6203;SDS011;3135;42.602;23.468;2024-03-08T04:58:50;1.30;;;1.20;;
6203;SDS011;3135;42.602;23.468;2024-03-08T05:01:16;2.90;;;1.70;;
6203;SDS011;3135;42.602;23.468;2024-03-08T05:03:41;1.27;;;1.17;;
6203;SDS011;3135;42.602;23.468;2024-03-08T05:06:07;3.58;;;1.08;;
6203;SDS011;3135;42.602;23.468;2024-03-08T05:08:33;1.23;;;1.13;;
6203;SDS011;3135;42.602;23.468;2024-03-08T05:10:59;1.73;;;1.45;;
6203;SDS011;3135;42.602;23.468;2024-03-08T05:13:29;0.87;;;0.87;;
6203;SDS011;3135;42.602;23.468;2024-03-08T05:15:56;1.25;;;0.73;;
6203;SDS011;3135;42.602;23.468;2024-03-08T05:18:23;1.40;;;1.20;;
6203;SDS011;3135;42.602;23.468;2024-03-08T05:20:49;2.95;;;2.30;;
6203;SDS011;3135;42.602;23.468;2024-03-08T05:23:16;2.63;;;2.05;;
6203;SDS011;3135;42.602;23.468;2024-03-08T05:25:41;5.07;;;3.13;;
6203;SDS011;3135;42.602;23.468;2024-03-08T05:28:06;6.43;;;3.33;;
6203;SDS011;3135;42.602;23.468;2024-03-08T05:30:32;5.17;;;3.27;;
6203;SDS011;3135;42.602;23.468;2024-03-08T05:32:57;5.97;;;3.60;;
6203;SDS011;3135;42.602;23.468;2024-03-08T05:35:23;11.23;;;5.87;;
6203;SDS011;3135;42.602;23.468;2024-03-08T05:37:49;10.15;;;5.35;;
6203;SDS011;3135;42.602;23.468;2024-03-08T05:40:15;8.80;;;3.87;;
6203;SDS011;3135;42.602;23.468;2024-03-08T05:42:40;5.27;;;3.67;;
6203;SDS011;3135;42.602;23.468;2024-03-08T05:45:06;7.60;;;4.07;;
6203;SDS011;3135;42.602;23.468;2024-03-08T05:47:32;9.15;;;4.90;;
6203;SDS011;3135;42.602;23.468;2024-03-08T05:50:00;20.40;;;9.10;;
6203;SDS011;3135;42.602;23.468;2024-03-08T05:52:26;8.73;;;4.22;;
6203;SDS011;3135;42.602;23.468;2024-03-08T05:54:52;10.27;;;4.53;;
6203;SDS011;3135;42.602;23.468;2024-03-08T05:57:17;21.63;;;7.20;;
6203;SDS011;3135;42.602;23.468;2024-03-08T05:59:44;25.75;;;8.95;;
6203;SDS011;3135;42.602;23.468;2024-03-08T06:02:09;17.73;;;6.83;;
6203;SDS011;3135;42.602;23.468;2024-03-08T06:04:34;23.27;;;9.00;;
6203;SDS011;3135;42.602;23.468;2024-03-08T06:07:00;9.43;;;3.90;;
6203;SDS011;3135;42.602;23.468;2024-03-08T06:09:28;7.43;;;4.10;;
6203;SDS011;3135;42.602;23.468;2024-03-08T06:11:53;6.45;;;2.88;;
6203;SDS011;3135;42.602;23.468;2024-03-08T06:14:19;10.65;;;5.15;;
6203;SDS011;3135;42.602;23.468;2024-03-08T06:16:45;11.93;;;5.77;;
6203;SDS011;3135;42.602;23.468;2024-03-08T06:19:12;12.23;;;5.00;;
6203;SDS011;3135;42.602;23.468;2024-03-08T06:21:38;9.75;;;4.43;;
6203;SDS011;3135;42.602;23.468;2024-03-08T06:24:04;9.63;;;4.30;;
6203;SDS011;3135;42.602;23.468;2024-03-08T06:26:29;10.95;;;4.22;;
6203;SDS011;3135;42.602;23.468;2024-03-08T06:28:55;6.20;;;3.53;;
6203;SDS011;3135;42.602;23.468;2024-03-08T06:31:21;7.73;;;3.80;;
6203;SDS011;3135;42.602;23.468;2024-03-08T06:33:46;4.82;;;3.13;;
6203;SDS011;3135;42.602;23.468;2024-03-08T06:36:15;5.60;;;3.33;;
6203;SDS011;3135;42.602;23.468;2024-03-08T06:38:43;7.47;;;3.63;;
6203;SDS011;3135;42.602;23.468;2024-03-08T06:41:12;6.20;;;3.65;;
6203;SDS011;3135;42.602;23.468;2024-03-08T06:43:40;7.75;;;3.97;;
6203;SDS011;3135;42.602;23.468;2024-03-08T06:46:09;9.30;;;4.40;;
6203;SDS011;3135;42.602;23.468;2024-03-08T06:48:37;5.22;;;3.38;;
6203;SDS011;3135;42.602;23.468;2024-03-08T06:51:03;5.00;;;2.85;;
6203;SDS011;3135;42.602;23.468;2024-03-08T06:53:29;3.85;;;2.78;;
6203;SDS011;3135;42.602;23.468;2024-03-08T06:55:55;3.83;;;2.53;;
6203;SDS011;3135;42.602;23.468;2024-03-08T06:58:21;3.50;;;2.50;;
6203;SDS011;3135;42.602;23.468;2024-03-08T07:00:46;6.60;;;3.03;;
6203;SDS011;3135;42.602;23.468;2024-03-08T07:03:12;6.47;;;3.03;;
6203;SDS011;3135;42.602;23.468;2024-03-08T07:05:42;6.93;;;3.45;;
6203;SDS011;3135;42.602;23.468;2024-03-08T07:08:07;5.97;;;3.10;;
6203;SDS011;3135;42.602;23.468;2024-03-08T07:10:33;6.80;;;3.10;;
6203;SDS011;3135;42.602;23.468;2024-03-08T07:13:00;4.40;;;2.67;;
6203;SDS011;3135;42.602;23.468;2024-03-08T07:15:27;4.63;;;2.88;;
6203;SDS011;3135;42.602;23.468;2024-03-08T07:17:53;4.10;;;2.80;;
6203;SDS011;3135;42.602;23.468;2024-03-08T07:20:19;3.92;;;2.65;;
6203;SDS011;3135;42.602;23.468;2024-03-08T07:22:45;3.72;;;2.53;;
6203;SDS011;3135;42.602;23.468;2024-03-08T07:25:17;3.33;;;2.10;;
6203;SDS011;3135;42.602;23.468;2024-03-08T07:27:53;4.75;;;2.55;;
6203;SDS011;3135;42.602;23.468;2024-03-08T07:30:20;3.45;;;2.40;;
6203;SDS011;3135;42.602;23.468;2024-03-08T07:33:05;2.92;;;2.25;;
6203;SDS011;3135;42.602;23.468;2024-03-08T07:35:32;3.83;;;2.60;;
6203;SDS011;3135;42.602;23.468;2024-03-08T07:37:58;3.90;;;2.40;;
6203;SDS011;3135;42.602;23.468;2024-03-08T07:40:27;3.70;;;2.57;;
6203;SDS011;3135;42.602;23.468;2024-03-08T07:42:53;2.60;;;1.95;;
6203;SDS011;3135;42.602;23.468;2024-03-08T07:45:18;3.13;;;2.00;;
6203;SDS011;3135;42.602;23.468;2024-03-08T07:47:44;3.38;;;2.15;;
6203;SDS011;3135;42.602;23.468;2024-03-08T07:50:09;3.35;;;2.30;;
6203;SDS011;3135;42.602;23.468;2024-03-08T07:52:35;3.17;;;2.30;;
6203;SDS011;3135;42.602;23.468;2024-03-08T07:55:01;5.20;;;3.03;;
6203;SDS011;3135;42.602;23.468;2024-03-08T07:57:28;4.20;;;2.83;;
6203;SDS011;3135;42.602;23.468;2024-03-08T07:59:54;2.90;;;2.03;;
6203;SDS011;3135;42.602;23.468;2024-03-08T08:02:20;2.00;;;1.77;;
6203;SDS011;3135;42.602;23.468;2024-03-08T08:04:45;2.63;;;2.00;;
6203;SDS011;3135;42.602;23.468;2024-03-08T08:07:11;2.78;;;1.90;;
6203;SDS011;3135;42.602;23.468;2024-03-08T08:09:37;2.70;;;1.83;;
6203;SDS011;3135;42.602;23.468;2024-03-08T08:12:03;3.77;;;2.47;;
6203;SDS011;3135;42.602;23.468;2024-03-08T08:14:29;3.13;;;2.10;;
6203;SDS011;3135;42.602;23.468;2024-03-08T08:16:55;2.40;;;2.08;;
6203;SDS011;3135;42.602;23.468;2024-03-08T08:19:22;2.72;;;2.47;;
6203;SDS011;3135;42.602;23.468;2024-03-08T08:21:48;5.10;;;2.70;;
6203;SDS011;3135;42.602;23.468;2024-03-08T08:24:13;3.07;;;2.60;;
6203;SDS011;3135;42.602;23.468;2024-03-08T08:26:39;4.22;;;2.70;;
6203;SDS011;3135;42.602;23.468;2024-03-08T08:29:05;4.57;;;2.60;;
6203;SDS011;3135;42.602;23.468;2024-03-08T08:31:32;3.33;;;2.45;;
6203;SDS011;3135;42.602;23.468;2024-03-08T08:33:58;4.22;;;2.70;;
6203;SDS011;3135;42.602;23.468;2024-03-08T08:36:26;4.37;;;2.70;;
6203;SDS011;3135;42.602;23.468;2024-03-08T08:38:54;5.35;;;2.83;;
6203;SDS011;3135;42.602;23.468;2024-03-08T08:41:21;4.03;;;3.10;;
6203;SDS011;3135;42.602;23.468;2024-03-08T08:43:47;4.38;;;2.78;;
6203;SDS011;3135;42.602;23.468;2024-03-08T08:46:16;3.10;;;2.17;;
6203;SDS011;3135;42.602;23.468;2024-03-08T08:48:42;4.72;;;2.80;;
6203;SDS011;3135;42.602;23.468;2024-03-08T08:51:10;3.70;;;2.60;;
6203;SDS011;3135;42.602;23.468;2024-03-08T08:53:42;3.63;;;2.43;;
6203;SDS011;3135;42.602;23.468;2024-03-08T08:56:12;2.88;;;2.10;;
6203;SDS011;3135;42.602;23.468;2024-03-08T08:58:42;3.70;;;2.13;;
6203;SDS011;3135;42.602;23.468;2024-03-08T09:01:08;2.17;;;1.90;;
6203;SDS011;3135;42.602;23.468;2024-03-08T09:03:35;3.05;;;1.70;;
6203;SDS011;3135;42.602;23.468;2024-03-08T09:06:02;2.70;;;1.70;;
6203;SDS011;3135;42.602;23.468;2024-03-08T09:08:30;2.13;;;1.70;;
6203;SDS011;3135;42.602;23.468;2024-03-08T09:10:56;2.65;;;1.80;;
6203;SDS011;3135;42.602;23.468;2024-03-08T09:13:21;1.60;;;1.30;;
6203;SDS011;3135;42.602;23.468;2024-03-08T09:15:46;2.50;;;1.37;;
6203;SDS011;3135;42.602;23.468;2024-03-08T09:18:12;1.87;;;1.10;;
6203;SDS011;3135;42.602;23.468;2024-03-08T09:20:37;1.20;;;1.10;;
6203;SDS011;3135;42.602;23.468;2024-03-08T09:23:03;1.33;;;1.23;;
6203;SDS011;3135;42.602;23.468;2024-03-08T09:25:29;1.30;;;1.20;;
6203;SDS011;3135;42.602;23.468;2024-03-08T09:27:55;2.42;;;1.58;;
6203;SDS011;3135;42.602;23.468;2024-03-08T09:30:20;2.60;;;1.40;;
6203;SDS011;3135;42.602;23.468;2024-03-08T09:32:46;4.28;;;1.52;;
6203;SDS011;3135;42.602;23.468;2024-03-08T09:35:12;1.70;;;1.60;;
6203;SDS011;3135;42.602;23.468;2024-03-08T09:37:38;2.08;;;1.80;;
6203;SDS011;3135;42.602;23.468;2024-03-08T09:40:03;2.22;;;1.70;;
6203;SDS011;3135;42.602;23.468;2024-03-08T09:42:34;1.85;;;1.45;;
6203;SDS011;3135;42.602;23.468;2024-03-08T09:45:04;3.05;;;1.50;;
6203;SDS011;3135;42.602;23.468;2024-03-08T09:47:35;1.58;;;1.48;;
6203;SDS011;3135;42.602;23.468;2024-03-08T09:50:05;1.50;;;1.40;;
6203;SDS011;3135;42.602;23.468;2024-03-08T09:52:41;1.95;;;1.33;;
6203;SDS011;3135;42.602;23.468;2024-03-08T09:55:09;1.30;;;1.20;;
6203;SDS011;3135;42.602;23.468;2024-03-08T09:57:39;1.30;;;1.20;;
6203;SDS011;3135;42.602;23.468;2024-03-08T10:00:05;1.20;;;1.10;;
6203;SDS011;3135;42.602;23.468;2024-03-08T10:02:46;1.20;;;1.10;;
6203;SDS011;3135;42.602;23.468;2024-03-08T10:05:12;1.10;;;1.00;;
6203;SDS011;3135;42.602;23.468;2024-03-08T10:07:39;1.80;;;1.30;;
6203;SDS011;3135;42.602;23.468;2024-03-08T10:10:04;1.55;;;1.45;;
6203;SDS011;3135;42.602;23.468;2024-03-08T10:12:30;2.53;;;1.67;;
6203;SDS011;3135;42.602;23.468;2024-03-08T10:14:58;1.53;;;1.43;;
6203;SDS011;3135;42.602;23.468;2024-03-08T10:17:24;3.15;;;1.40;;
6203;SDS011;3135;42.602;23.468;2024-03-08T10:19:50;2.00;;;1.40;;
6203;SDS011;3135;42.602;23.468;2024-03-08T10:22:17;1.98;;;1.70;;
6203;SDS011;3135;42.602;23.468;2024-03-08T10:24:44;2.10;;;1.60;;
6203;SDS011;3135;42.602;23.468;2024-03-08T10:27:13;1.85;;;1.48;;
6203;SDS011;3135;42.602;23.468;2024-03-08T10:29:41;2.00;;;1.25;;
6203;SDS011;3135;42.602;23.468;2024-03-08T10:32:09;1.65;;;1.33;;
6203;SDS011;3135;42.602;23.468;2024-03-08T10:34:35;1.95;;;1.50;;
6203;SDS011;3135;42.602;23.468;2024-03-08T10:37:03;4.57;;;1.70;;
6203;SDS011;3135;42.602;23.468;2024-03-08T10:39:36;1.70;;;1.60;;
6203;SDS011;3135;42.602;23.468;2024-03-08T10:42:03;2.65;;;1.70;;
6203;SDS011;3135;42.602;23.468;2024-03-08T10:47:02;2.73;;;1.33;;
6203;SDS011;3135;42.602;23.468;2024-03-08T10:49:38;2.90;;;1.77;;
6203;SDS011;3135;42.602;23.468;2024-03-08T10:52:10;2.60;;;1.70;;
6203;SDS011;3135;42.602;23.468;2024-03-08T10:54:37;1.73;;;1.40;;
6203;SDS011;3135;42.602;23.468;2024-03-08T10:57:05;1.65;;;1.50;;
6203;SDS011;3135;42.602;23.468;2024-03-08T10:59:31;2.63;;;1.60;;
6203;SDS011;3135;42.602;23.468;2024-03-08T11:01:59;2.60;;;1.48;;
6203;SDS011;3135;42.602;23.468;2024-03-08T11:04:25;6.20;;;1.42;;
6203;SDS011;3135;42.602;23.468;2024-03-08T11:06:50;1.63;;;1.50;;
6203;SDS011;3135;42.602;23.468;2024-03-08T11:09:32;1.30;;;1.20;;
6203;SDS011;3135;42.602;23.468;2024-03-08T11:12:19;1.33;;;1.23;;
6203;SDS011;3135;42.602;23.468;2024-03-08T11:14:52;1.30;;;1.20;;
6203;SDS011;3135;42.602;23.468;2024-03-08T11:19:52;2.00;;;1.10;;
6203;SDS011;3135;42.602;23.468;2024-03-08T11:22:27;1.20;;;1.10;;
6203;SDS011;3135;42.602;23.468;2024-03-08T11:25:01;1.48;;;1.17;;
6203;SDS011;3135;42.602;23.468;2024-03-08T11:27:31;1.50;;;1.00;;
6203;SDS011;3135;42.602;23.468;2024-03-08T11:30:00;1.10;;;1.10;;
6203;SDS011;3135;42.602;23.468;2024-03-08T11:32:46;1.50;;;1.10;;
6203;SDS011;3135;42.602;23.468;2024-03-08T11:35:21;1.73;;;1.30;;
6203;SDS011;3135;42.602;23.468;2024-03-08T11:37:48;2.70;;;1.30;;
6203;SDS011;3135;42.602;23.468;2024-03-08T11:40:14;1.50;;;1.00;;
6203;SDS011;3135;42.602;23.468;2024-03-08T11:42:48;2.20;;;1.20;;
6203;SDS011;3135;42.602;23.468;2024-03-08T11:45:17;1.88;;;1.20;;
6203;SDS011;3135;42.602;23.468;2024-03-08T11:47:46;1.38;;;1.27;;
6203;SDS011;3135;42.602;23.468;2024-03-08T11:50:12;1.30;;;1.20;;
6203;SDS011;3135;42.602;23.468;2024-03-08T11:52:38;1.20;;;1.10;;
6203;SDS011;3135;42.602;23.468;2024-03-08T11:55:04;1.70;;;1.30;;
6203;SDS011;3135;42.602;23.468;2024-03-08T11:57:30;2.85;;;1.45;;
6203;SDS011;3135;42.602;23.468;2024-03-08T11:59:57;2.03;;;1.27;;
6203;SDS011;3135;42.602;23.468;2024-03-08T12:02:24;1.17;;;1.08;;
6203;SDS011;3135;42.602;23.468;2024-03-08T12:04:59;2.50;;;1.10;;
6203;SDS011;3135;42.602;23.468;2024-03-08T12:07:28;1.58;;;1.40;;
6203;SDS011;3135;42.602;23.468;2024-03-08T12:12:50;1.15;;;0.82;;
6203;SDS011;3135;42.602;23.468;2024-03-08T12:15:17;0.70;;;0.70;;
6203;SDS011;3135;42.602;23.468;2024-03-08T12:17:45;1.00;;;0.90;;
6203;SDS011;3135;42.602;23.468;2024-03-08T12:20:19;1.55;;;0.93;;
6203;SDS011;3135;42.602;23.468;2024-03-08T12:22:47;1.30;;;0.90;;
6203;SDS011;3135;42.602;23.468;2024-03-08T12:25:14;2.22;;;1.00;;
6203;SDS011;3135;42.602;23.468;2024-03-08T12:27:40;1.70;;;1.00;;
6203;SDS011;3135;42.602;23.468;2024-03-08T12:30:19;17.10;;;5.00;;
6203;SDS011;3135;42.602;23.468;2024-03-08T12:32:59;4.32;;;1.20;;
6203;SDS011;3135;42.602;23.468;2024-03-08T12:35:29;1.38;;;0.85;;
6203;SDS011;3135;42.602;23.468;2024-03-08T12:37:57;1.20;;;1.10;;
6203;SDS011;3135;42.602;23.468;2024-03-08T12:40:26;6.85;;;1.10;;
6203;SDS011;3135;42.602;23.468;2024-03-08T12:42:54;1.83;;;1.08;;
6203;SDS011;3135;42.602;23.468;2024-03-08T12:45:23;0.85;;;0.80;;
6203;SDS011;3135;42.602;23.468;2024-03-08T12:47:52;0.93;;;0.93;;
6203;SDS011;3135;42.602;23.468;2024-03-08T12:50:23;1.58;;;1.00;;
6203;SDS011;3135;42.602;23.468;2024-03-08T12:52:52;1.13;;;1.02;;
6203;SDS011;3135;42.602;23.468;2024-03-08T12:55:21;0.90;;;0.90;;
6203;SDS011;3135;42.602;23.468;2024-03-08T12:57:46;1.10;;;0.80;;
6203;SDS011;3135;42.602;23.468;2024-03-08T13:00:14;1.08;;;1.00;;
6203;SDS011;3135;42.602;23.468;2024-03-08T13:02:47;0.93;;;0.90;;
6203;SDS011;3135;42.602;23.468;2024-03-08T13:05:12;1.65;;;0.93;;
6203;SDS011;3135;42.602;23.468;2024-03-08T13:07:39;1.05;;;0.95;;
6203;SDS011;3135;42.602;23.468;2024-03-08T13:10:05;2.15;;;1.00;;
6203;SDS011;3135;42.602;23.468;2024-03-08T13:12:32;1.20;;;1.10;;
6203;SDS011;3135;42.602;23.468;2024-03-08T13:14:58;1.20;;;1.10;;
6203;SDS011;3135;42.602;23.468;2024-03-08T13:17:23;1.30;;;1.13;;
6203;SDS011;3135;42.602;23.468;2024-03-08T13:19:48;3.27;;;1.53;;
6203;SDS011;3135;42.602;23.468;2024-03-08T13:22:14;2.20;;;1.20;;
6203;SDS011;3135;42.602;23.468;2024-03-08T13:24:44;2.40;;;1.00;;
6203;SDS011;3135;42.602;23.468;2024-03-08T13:27:10;1.10;;;1.00;;
6203;SDS011;3135;42.602;23.468;2024-03-08T13:29:45;1.60;;;1.20;;
6203;SDS011;3135;42.602;23.468;2024-03-08T13:32:12;1.20;;;1.10;;
6203;SDS011;3135;42.602;23.468;2024-03-08T13:34:40;2.20;;;1.20;;
6203;SDS011;3135;42.602;23.468;2024-03-08T13:37:06;1.10;;;1.00;;
6203;SDS011;3135;42.602;23.468;2024-03-08T13:39:34;0.98;;;0.95;;
6203;SDS011;3135;42.602;23.468;2024-03-08T13:42:09;0.98;;;0.90;;
6203;SDS011;3135;42.602;23.468;2024-03-08T13:44:39;1.85;;;1.00;;
6203;SDS011;3135;42.602;23.468;2024-03-08T13:47:08;0.98;;;0.90;;
6203;SDS011;3135;42.602;23.468;2024-03-08T13:49:33;1.10;;;1.05;;
6203;SDS011;3135;42.602;23.468;2024-03-08T13:51:59;1.15;;;1.05;;
6203;SDS011;3135;42.602;23.468;2024-03-08T13:54:25;1.80;;;1.40;;
6203;SDS011;3135;42.602;23.468;2024-03-08T13:56:52;1.33;;;1.20;;
6203;SDS011;3135;42.602;23.468;2024-03-08T13:59:19;2.05;;;1.38;;
6203;SDS011;3135;42.602;23.468;2024-03-08T14:01:47;1.80;;;1.50;;
6203;SDS011;3135;42.602;23.468;2024-03-08T14:04:14;2.05;;;1.27;;
6203;SDS011;3135;42.602;23.468;2024-03-08T14:06:42;1.70;;;1.00;;
6203;SDS011;3135;42.602;23.468;2024-03-08T14:09:10;2.10;;;1.00;;
6203;SDS011;3135;42.602;23.468;2024-03-08T14:11:41;1.07;;;1.00;;
6203;SDS011;3135;42.602;23.468;2024-03-08T14:14:09;1.52;;;1.13;;
6203;SDS011;3135;42.602;23.468;2024-03-08T14:16:37;3.90;;;1.50;;
6203;SDS011;3135;42.602;23.468;2024-03-08T14:19:03;2.83;;;1.25;;
6203;SDS011;3135;42.602;23.468;2024-03-08T14:21:31;2.40;;;1.30;;
6203;SDS011;3135;42.602;23.468;2024-03-08T14:23:57;1.95;;;1.27;;
6203;SDS011;3135;42.602;23.468;2024-03-08T14:26:22;4.13;;;1.73;;
6203;SDS011;3135;42.602;23.468;2024-03-08T14:28:47;1.20;;;1.13;;
6203;SDS011;3135;42.602;23.468;2024-03-08T14:31:16;2.35;;;1.50;;
6203;SDS011;3135;42.602;23.468;2024-03-08T14:33:44;1.48;;;1.13;;
6203;SDS011;3135;42.602;23.468;2024-03-08T14:36:14;1.30;;;0.90;;
6203;SDS011;3135;42.602;23.468;2024-03-08T14:38:42;1.65;;;1.40;;
6203;SDS011;3135;42.602;23.468;2024-03-08T14:41:08;2.08;;;1.55;;
6203;SDS011;3135;42.602;23.468;2024-03-08T14:43:33;1.20;;;1.00;;
6203;SDS011;3135;42.602;23.468;2024-03-08T14:45:59;1.90;;;1.47;;
6203;SDS011;3135;42.602;23.468;2024-03-08T14:48:24;3.77;;;1.30;;
6203;SDS011;3135;42.602;23.468;2024-03-08T14:50:50;2.57;;;1.20;;
6203;SDS011;3135;42.602;23.468;2024-03-08T14:53:15;4.17;;;2.30;;
6203;SDS011;3135;42.602;23.468;2024-03-08T14:55:42;1.67;;;1.30;;
6203;SDS011;3135;42.602;23.468;2024-03-08T14:58:08;3.60;;;1.30;;
6203;SDS011;3135;42.602;23.468;2024-03-08T15:00:34;1.35;;;1.25;;
6203;SDS011;3135;42.602;23.468;2024-03-08T15:02:59;1.15;;;1.05;;
6203;SDS011;3135;42.602;23.468;2024-03-08T15:05:27;2.22;;;1.40;;
6203;SDS011;3135;42.602;23.468;2024-03-08T15:07:53;5.60;;;2.63;;